Time;durP1;ratioP1;P1;durP2;ratioP2;P2;SDS_P1;SDS_P2;PMS_P1;PMS_P2;Temp;Humidity;BMP_temperature;BMP_pressure;BME280_temperature;BME280_humidity;BME280_pressure;Samples;Min_cycle;Max_cycle;Signal;HPM_P1;HPM_P2
2021/09/01 00:00:23;;;;;;;21.23;12.13;;;;;;;18.37;66.44;102169.09;4823228;28;119853;-80
2021/09/01 00:02:49;;;;;;;21.23;12.20;;;;;;;18.40;66.72;102175.72;4833921;28;121562;-82
2021/09/01 00:05:14;;;;;;;18.58;11.48;;;;;;;18.38;66.68;102173.41;4837823;28;122042;-80
2021/09/01 00:07:43;;;;;;;22.60;12.30;;;;;;;18.33;66.75;102174.06;4858468;28;120869;-81
2021/09/01 00:10:10;;;;;;;19.33;11.57;;;;;;;18.35;66.66;102176.38;4859256;28;120321;-81
2021/09/01 00:12:36;;;;;;;15.63;10.88;;;;;;;18.34;66.73;102175.59;4854919;28;122507;-82
2021/09/01 00:15:04;;;;;;;21.95;11.30;;;;;;;18.29;66.67;102170.69;4839216;28;120142;-80
2021/09/01 00:17:29;;;;;;;19.63;10.88;;;;;;;18.30;66.70;102180.56;4853663;28;119919;-81
2021/09/01 00:19:55;;;;;;;18.20;11.45;;;;;;;18.25;66.56;102172.84;4854705;28;119565;-80
2021/09/01 00:22:21;;;;;;;18.92;10.45;;;;;;;18.23;66.57;102167.00;4857174;28;119791;-81
2021/09/01 00:24:46;;;;;;;16.10;10.55;;;;;;;18.21;66.97;102174.25;4856202;28;119917;-80
2021/09/01 00:27:13;;;;;;;18.42;10.38;;;;;;;18.12;66.76;102165.94;4855129;28;120099;-80
2021/09/01 00:29:39;;;;;;;14.93;10.13;;;;;;;18.18;66.87;102167.63;4846921;28;119877;-81
2021/09/01 00:32:05;;;;;;;15.65;10.13;;;;;;;18.18;66.91;102170.41;4842561;28;120086;-81
2021/09/01 00:34:31;;;;;;;14.68;9.85;;;;;;;18.18;66.82;102180.72;4855305;28;120001;-82
2021/09/01 00:36:56;;;;;;;18.58;10.07;;;;;;;18.14;67.09;102174.56;4856999;28;120726;-81
2021/09/01 00:39:22;;;;;;;23.73;10.30;;;;;;;18.09;67.10;102178.75;4838721;28;120569;-80
2021/09/01 00:41:48;;;;;;;21.25;10.38;;;;;;;18.08;66.89;102171.66;4871281;28;120934;-80
2021/09/01 00:44:27;;;;;;;18.02;10.35;;;;;;;18.12;66.97;102186.16;4855385;28;121239;-81
2021/09/01 00:46:56;;;;;;;20.17;10.98;;;;;;;18.10;67.05;102180.28;4839143;28;121174;-81
2021/09/01 00:49:24;;;;;;;19.60;11.05;;;;;;;18.07;67.21;102182.00;4849322;28;120054;-80
2021/09/01 00:51:50;;;;;;;21.52;10.57;;;;;;;18.05;67.05;102183.72;4829827;28;126469;-81
2021/09/01 00:54:21;;;;;;;19.60;10.32;;;;;;;18.04;66.88;102182.16;4862423;28;119779;-81
2021/09/01 00:56:52;;;;;;;16.75;10.57;;;;;;;18.03;67.08;102183.41;4844829;28;120207;-80
2021/09/01 00:59:31;;;;;;;15.48;10.32;;;;;;;18.02;67.06;102185.41;4843271;28;120010;-81
2021/09/01 01:01:57;;;;;;;16.65;10.60;;;;;;;18.00;67.19;102182.34;4875069;28;119501;-80
2021/09/01 01:04:27;;;;;;;19.55;10.15;;;;;;;18.00;67.27;102187.13;4859653;28;119770;-81
2021/09/01 01:07:01;;;;;;;14.10;9.80;;;;;;;17.99;67.11;102180.03;4856993;28;120248;-80
2021/09/01 01:09:27;;;;;;;18.55;10.10;;;;;;;17.98;67.27;102178.47;4855523;28;120316;-80
2021/09/01 01:12:05;;;;;;;15.75;9.63;;;;;;;17.98;67.07;102176.47;4842241;28;119859;-80
2021/09/01 01:14:40;;;;;;;17.58;10.32;;;;;;;17.92;67.21;102175.53;4851836;28;120067;-80
2021/09/01 01:17:11;;;;;;;18.55;10.85;;;;;;;17.96;67.22;102181.69;4827812;28;122117;-80
2021/09/01 01:19:51;;;;;;;16.00;9.45;;;;;;;17.93;67.06;102176.31;4843816;28;120242;-80
2021/09/01 01:22:23;;;;;;;17.88;9.18;;;;;;;17.86;67.07;102166.31;4863978;28;119728;-80
2021/09/01 01:25:01;;;;;;;14.98;9.93;;;;;;;17.95;67.25;102173.84;4856382;28;121774;-80
2021/09/01 01:27:41;;;;;;;18.73;10.60;;;;;;;17.92;67.19;102174.78;4842611;28;121922;-80
2021/09/01 01:30:11;;;;;;;17.38;10.57;;;;;;;17.89;67.44;102170.16;4846626;28;120134;-80
2021/09/01 01:32:38;;;;;;;21.02;11.35;;;;;;;17.87;67.19;102170.63;4839840;28;122638;-80
2021/09/01 01:35:05;;;;;;;19.83;11.00;;;;;;;17.87;67.44;102178.19;4872850;28;120043;-80
2021/09/01 01:37:34;;;;;;;19.85;10.60;;;;;;;17.86;67.61;102182.97;4841332;28;119768;-80
2021/09/01 01:39:59;;;;;;;21.98;11.45;;;;;;;17.76;67.49;102162.78;4856127;28;122355;-81
2021/09/01 01:42:25;;;;;;;20.95;11.63;;;;;;;17.86;67.60;102182.97;4857168;28;119895;-81
2021/09/01 01:44:51;;;;;;;22.70;11.48;;;;;;;17.85;67.74;102172.31;4874528;28;119591;-82
2021/09/01 01:47:16;;;;;;;17.40;11.60;;;;;;;17.87;68.02;102178.19;4851966;28;121211;-81
2021/09/01 01:49:45;;;;;;;18.52;11.85;;;;;;;17.88;68.10;102174.94;4860348;28;120559;-80
2021/09/01 01:52:11;;;;;;;26.20;11.57;;;;;;;17.88;68.00;102174.16;4858131;28;120084;-81
2021/09/01 01:54:36;;;;;;;23.15;11.35;;;;;;;17.91;68.18;102178.78;4860941;28;122607;-81
2021/09/01 01:57:02;;;;;;;27.58;11.00;;;;;;;17.92;68.52;102188.66;4877829;28;119642;-80
2021/09/01 01:59:28;;;;;;;32.05;11.80;;;;;;;17.86;68.10;102177.41;4844922;28;120822;-80
2021/09/01 02:01:53;;;;;;;24.02;11.43;;;;;;;17.93;68.27;102195.75;4875265;28;121428;-81
2021/09/01 02:04:19;;;;;;;21.42;12.15;;;;;;;17.84;68.31;102177.09;4822999;28;120078;-80
2021/09/01 02:06:45;;;;;;;27.10;11.65;;;;;;;17.90;68.11;102189.13;4856805;28;123235;-81
2021/09/01 02:09:10;;;;;;;16.35;11.30;;;;;;;17.89;68.14;102184.81;4858321;28;119866;-83
2021/09/01 02:11:36;;;;;;;24.65;10.85;;;;;;;17.95;68.11;102201.59;4858156;28;119677;-81
2021/09/01 02:14:05;;;;;;;17.95;10.60;;;;;;;17.90;68.05;102191.91;4860577;28;123133;-81
2021/09/01 02:16:30;;;;;;;17.17;10.57;;;;;;;17.94;68.08;102200.06;4876830;28;120651;-80
2021/09/01 02:18:56;;;;;;;21.48;10.00;;;;;;;17.92;68.14;102196.97;4858988;28;119677;-80
2021/09/01 02:21:21;;;;;;;44.40;10.00;;;;;;;17.91;68.03;102192.66;4863646;28;120556;-81
2021/09/01 02:23:47;;;;;;;13.50;9.50;;;;;;;17.90;68.33;102199.47;4877567;28;119506;-81
2021/09/01 02:26:13;;;;;;;54.65;9.45;;;;;;;17.88;68.49;102188.06;4841946;28;121173;-81
2021/09/01 02:28:38;;;;;;;57.63;9.95;;;;;;;17.85;68.54;102189.75;4857712;28;119463;-83
2021/09/01 02:31:04;;;;;;;31.88;9.73;;;;;;;17.88;68.54;102185.28;4843257;28;119556;-80
2021/09/01 02:33:32;;;;;;;39.72;8.95;;;;;;;17.92;68.59;102191.44;4874638;28;119859;-81
2021/09/01 02:35:58;;;;;;;38.47;9.80;;;;;;;17.93;68.64;102190.97;4858664;28;119742;-80
2021/09/01 02:38:24;;;;;;;17.25;8.95;;;;;;;17.92;68.77;102183.09;4862444;28;119624;-80
2021/09/01 02:40:49;;;;;;;20.58;9.70;;;;;;;17.95;68.88;102184.94;4860912;28;119525;-82
2021/09/01 02:43:15;;;;;;;22.08;9.93;;;;;;;17.87;68.89;102169.84;4861461;28;120215;-80
2021/09/01 02:45:40;;;;;;;28.20;10.00;;;;;;;17.95;68.75;102185.72;4858082;28;119626;-81
2021/09/01 02:48:06;;;;;;;27.70;9.70;;;;;;;17.94;69.10;102184.19;4843936;28;119930;-80
2021/09/01 02:50:32;;;;;;;17.55;9.20;;;;;;;17.93;68.90;102181.88;4857577;28;119836;-80
2021/09/01 02:52:57;;;;;;;17.60;9.35;;;;;;;17.91;68.92;102182.34;4839787;28;121262;-83
2021/09/01 02:55:23;;;;;;;18.55;9.65;;;;;;;17.86;69.16;102182.19;4869385;28;119740;-80
2021/09/01 02:57:49;;;;;;;25.58;10.15;;;;;;;17.89;69.11;102189.59;4841371;28;119946;-81
2021/09/01 03:00:14;;;;;;;28.70;9.60;;;;;;;17.88;69.30;102186.03;4873475;28;120095;-81
2021/09/01 03:02:40;;;;;;;16.30;9.82;;;;;;;17.81;69.25;102180.03;4872866;28;119726;-81
2021/09/01 03:05:06;;;;;;;24.20;9.05;;;;;;;17.84;68.91;102187.44;4845986;28;121806;-83
2021/09/01 03:07:32;;;;;;;34.97;9.20;;;;;;;17.78;69.35;102182.53;4858075;28;121601;-83
2021/09/01 03:09:57;;;;;;;22.35;9.45;;;;;;;17.74;69.16;102181.91;4852114;28;119693;-80
2021/09/01 03:12:25;;;;;;;18.05;9.13;;;;;;;17.72;69.54;102184.34;4872986;28;121053;-80
2021/09/01 03:14:51;;;;;;;14.82;9.10;;;;;;;17.68;69.54;102171.88;4841814;28;119608;-80
2021/09/01 03:17:19;;;;;;;16.40;9.52;;;;;;;17.77;70.45;102197.63;4856069;28;119460;-81
2021/09/01 03:19:45;;;;;;;13.80;9.30;;;;;;;17.75;70.52;102194.56;4823942;28;122511;-80
2021/09/01 03:22:11;;;;;;;18.60;9.32;;;;;;;17.75;71.03;102188.22;4837760;28;121492;-80
2021/09/01 03:24:36;;;;;;;12.60;8.60;;;;;;;17.73;70.91;102188.66;4858240;28;119949;-80
2021/09/01 03:27:02;;;;;;;10.02;8.35;;;;;;;17.73;71.22;102191.44;4825823;28;119761;-80
2021/09/01 03:29:29;;;;;;;15.07;9.52;;;;;;;17.75;71.06;102191.78;4851411;28;120870;-80
2021/09/01 03:31:56;;;;;;;12.57;8.80;;;;;;;17.71;70.80;102182.81;4854667;28;122222;-80
2021/09/01 03:34:22;;;;;;;12.50;9.05;;;;;;;17.74;71.11;102184.69;4864674;28;121139;-80
2021/09/01 03:36:48;;;;;;;15.07;8.93;;;;;;;17.78;71.57;102190.06;4856674;28;120055;-80
2021/09/01 03:39:16;;;;;;;12.00;8.40;;;;;;;17.84;72.27;102187.44;4853670;28;119858;-82
2021/09/01 03:41:44;;;;;;;12.45;9.27;;;;;;;17.85;72.35;102188.97;4854201;28;120140;-80
2021/09/01 03:44:10;;;;;;;11.93;8.95;;;;;;;17.87;72.03;102186.50;4856334;28;121909;-80
2021/09/01 03:46:36;;;;;;;11.60;9.13;;;;;;;17.81;71.39;102182.81;4856868;28;119818;-80
2021/09/01 03:49:01;;;;;;;18.73;9.15;;;;;;;17.83;71.23;102186.69;4870425;28;120264;-80
2021/09/01 03:51:27;;;;;;;19.63;8.95;;;;;;;17.74;71.12;102181.13;4838297;28;121503;-81
2021/09/01 03:53:55;;;;;;;18.85;9.10;;;;;;;17.79;71.29;102191.63;4857639;28;119889;-82
2021/09/01 03:56:21;;;;;;;19.83;10.68;;;;;;;17.74;71.21;102193.00;4871927;28;119886;-81
2021/09/01 03:58:47;;;;;;;13.10;9.90;;;;;;;17.74;71.38;102198.56;4858584;28;122072;-81
2021/09/01 04:01:12;;;;;;;13.70;9.93;;;;;;;17.76;71.18;102204.41;4874904;28;119760;-82
2021/09/01 04:03:40;;;;;;;13.30;9.27;;;;;;;17.65;70.84;102197.75;4825999;28;121955;-81
2021/09/01 04:06:06;;;;;;;16.23;11.10;;;;;;;17.71;70.99;102210.56;4875882;28;120047;-82
2021/09/01 04:08:32;;;;;;;17.13;10.48;;;;;;;17.73;70.85;102201.78;4845715;28;120896;-80
2021/09/01 04:10:57;;;;;;;16.20;10.77;;;;;;;17.74;71.00;102209.66;4838904;28;121916;-80
2021/09/01 04:13:23;;;;;;;13.70;10.43;;;;;;;17.73;71.19;102213.66;4856697;28;119698;-81
2021/09/01 04:15:48;;;;;;;14.18;11.07;;;;;;;17.74;71.42;102215.22;4841277;28;121174;-82
2021/09/01 04:18:14;;;;;;;16.40;10.88;;;;;;;17.77;71.89;102213.50;4840169;28;119579;-80
2021/09/01 04:20:40;;;;;;;15.57;10.45;;;;;;;17.79;72.31;102211.03;4838222;28;119795;-81
2021/09/01 04:23:08;;;;;;;18.95;10.80;;;;;;;17.79;72.72;102211.03;4838208;28;120747;-80
2021/09/01 04:25:34;;;;;;;17.17;11.77;;;;;;;17.76;73.12;102209.19;4855735;28;121969;-82
2021/09/01 04:27:59;;;;;;;16.30;10.65;;;;;;;17.70;72.86;102199.94;4839675;28;119781;-85
2021/09/01 04:30:25;;;;;;;17.23;10.85;;;;;;;17.74;73.22;102218.00;4876512;28;119662;-82
2021/09/01 04:32:53;;;;;;;13.77;10.52;;;;;;;17.73;72.90;102213.66;4851215;28;121858;-82
2021/09/01 04:35:18;;;;;;;18.08;12.10;;;;;;;17.70;72.52;102217.34;4852837;28;125195;-82
2021/09/01 04:37:44;;;;;;;25.63;11.10;;;;;;;17.76;72.39;102218.28;4837668;28;121145;-82
2021/09/01 04:40:17;;;;;;;18.45;10.82;;;;;;;17.80;73.16;102234.78;4845188;28;120424;-81
2021/09/01 04:42:43;;;;;;;28.55;11.65;;;;;;;17.67;73.57;102226.59;4840614;28;122607;-81
2021/09/01 04:45:11;;;;;;;15.32;10.90;;;;;;;17.72;73.68;102228.00;4852715;28;121472;-80
2021/09/01 04:47:37;;;;;;;21.50;12.43;;;;;;;17.75;73.97;102238.97;4838543;28;120341;-81
2021/09/01 04:50:03;;;;;;;16.42;11.73;;;;;;;17.75;74.91;102238.97;4871010;28;119985;-81
2021/09/01 04:52:29;;;;;;;33.25;12.43;;;;;;;17.75;74.88;102236.19;4859629;28;120272;-80
2021/09/01 04:54:54;;;;;;;14.18;11.18;;;;;;;17.82;74.91;102245.44;4837501;28;119680;-81
2021/09/01 04:57:20;;;;;;;15.43;11.85;;;;;;;17.82;74.63;102239.88;4851914;28;122352;-81
2021/09/01 04:59:45;;;;;;;16.33;11.48;;;;;;;17.85;74.49;102239.72;4868219;28;119581;-79
2021/09/01 05:02:11;;;;;;;40.05;11.43;;;;;;;17.86;73.90;102244.03;4829261;28;122353;-79
2021/09/01 05:04:37;;;;;;;17.40;11.45;;;;;;;17.84;73.61;102240.94;4851424;28;123800;-80
2021/09/01 05:07:05;;;;;;;28.85;11.82;;;;;;;17.75;73.77;102233.41;4854677;28;120275;-80
2021/09/01 05:09:31;;;;;;;18.65;12.50;;;;;;;17.76;74.36;102243.28;4851881;28;120223;-80
2021/09/01 05:11:57;;;;;;;22.30;11.98;;;;;;;17.78;73.82;102245.59;4853371;28;120903;-80
2021/09/01 05:14:22;;;;;;;24.65;13.05;;;;;;;17.76;73.91;102240.50;4853712;28;119737;-82
2021/09/01 05:16:48;;;;;;;19.60;13.18;;;;;;;17.81;74.54;102241.88;4839038;28;121357;-80
2021/09/01 05:19:16;;;;;;;22.42;13.15;;;;;;;17.85;73.98;102247.28;4850930;28;119869;-83
2021/09/01 05:21:49;;;;;;;38.55;12.88;;;;;;;17.86;73.13;102243.25;4853955;28;119434;-80
2021/09/01 05:24:27;;;;;;;23.42;13.90;;;;;;;17.82;72.47;102237.88;4855266;28;120199;-80
2021/09/01 05:26:59;;;;;;;32.03;14.63;;;;;;;17.81;72.21;102224.47;4836447;28;121602;-82
2021/09/01 05:29:27;;;;;;;18.98;13.38;;;;;;;17.85;71.96;102231.38;4869717;28;119979;-80
2021/09/01 05:31:54;;;;;;;17.27;13.10;;;;;;;17.93;71.52;102231.84;4871015;28;119304;-81
2021/09/01 05:34:20;;;;;;;23.83;13.40;;;;;;;17.94;71.44;102228.59;4839183;28;119661;-80
2021/09/01 05:36:46;;;;;;;18.38;12.25;;;;;;;18.01;70.93;102238.63;4839701;28;122768;-83
2021/09/01 05:39:14;;;;;;;20.27;13.23;;;;;;;18.04;71.06;102241.25;4841193;28;121062;-81
2021/09/01 05:41:41;;;;;;;19.25;12.50;;;;;;;18.04;70.48;102232.91;4872399;28;121388;-80
2021/09/01 05:44:07;;;;;;;29.02;11.98;;;;;;;17.98;70.61;102229.22;4856613;28;122097;-80
2021/09/01 05:46:32;;;;;;;18.30;12.30;;;;;;;18.07;70.67;102243.09;4856073;28;120309;-81
2021/09/01 05:49:02;;;;;;;23.17;11.88;;;;;;;18.06;70.25;102236.00;4872160;28;119753;-83
2021/09/01 05:51:28;;;;;;;18.63;12.88;;;;;;;18.09;70.33;102246.19;4826171;28;122506;-80
2021/09/01 05:53:54;;;;;;;21.38;12.80;;;;;;;18.13;70.22;102243.22;4873959;28;119737;-80
2021/09/01 05:56:28;;;;;;;21.42;12.98;;;;;;;18.16;70.11;102249.84;4840290;28;119918;-82
2021/09/01 05:58:57;;;;;;;;;;;;;;;18.18;70.34;102248.16;4857075;28;120278;-80
2021/09/01 06:01:27;;;;;;;18.08;13.27;;;;;;;18.21;70.19;102255.56;4856774;28;120025;-80
2021/09/01 06:03:58;;;;;;;18.88;13.50;;;;;;;18.25;70.54;102252.63;4873036;28;120239;-81
2021/09/01 06:06:24;;;;;;;18.98;12.57;;;;;;;18.32;70.41;102257.88;4854247;28;119735;-80
2021/09/01 06:08:50;;;;;;;16.23;12.05;;;;;;;18.31;70.08;102257.09;4856241;28;120547;-80
2021/09/01 06:11:22;;;;;;;16.38;11.85;;;;;;;18.36;70.17;102264.78;4856754;28;120174;-80
2021/09/01 06:13:50;;;;;;;19.30;13.23;;;;;;;18.38;69.84;102267.88;4840625;28;120021;-81
2021/09/01 06:16:15;;;;;;;18.27;13.00;;;;;;;18.41;69.67;102278.06;4855944;28;119568;-81
2021/09/01 06:18:41;;;;;;;20.40;13.57;;;;;;;18.41;69.80;102264.16;4874904;28;120039;-80
2021/09/01 06:21:07;;;;;;;19.90;12.90;;;;;;;18.50;69.72;102279.28;4852387;28;121244;-80
2021/09/01 06:23:34;;;;;;;18.98;13.45;;;;;;;18.54;69.65;102277.09;4838964;28;122494;-80
2021/09/01 06:26:03;;;;;;;17.00;13.30;;;;;;;18.55;69.44;102276.63;4872307;28;120077;-80
2021/09/01 06:28:31;;;;;;;19.20;12.95;;;;;;;18.58;69.56;102270.13;4834937;28;122806;-80
2021/09/01 06:30:57;;;;;;;18.38;12.98;;;;;;;18.65;69.32;102274.63;4867596;28;119629;-80
2021/09/01 06:33:23;;;;;;;18.50;12.57;;;;;;;18.63;69.00;102268.75;4856521;28;120494;-80
2021/09/01 06:35:49;;;;;;;19.33;13.40;;;;;;;18.72;69.15;102274.31;4848106;28;119986;-81
2021/09/01 06:38:14;;;;;;;16.95;12.32;;;;;;;18.74;69.11;102276.63;4850966;28;119777;-81
2021/09/01 06:40:40;;;;;;;16.63;12.60;;;;;;;18.80;69.14;102285.84;4871355;28;119685;-83
2021/09/01 06:43:06;;;;;;;17.45;12.05;;;;;;;18.82;68.75;102286.91;4854035;28;125790;-80
2021/09/01 06:45:31;;;;;;;16.25;12.23;;;;;;;18.79;68.84;102284.31;4836063;28;120015;-80
2021/09/01 06:47:57;;;;;;;16.02;12.43;;;;;;;18.88;68.61;102290.59;4837101;28;122393;-80
2021/09/01 06:50:26;;;;;;;17.30;13.10;;;;;;;18.90;68.56;102290.91;4851188;28;122209;-81
2021/09/01 06:52:53;;;;;;;18.60;13.05;;;;;;;18.90;68.35;102290.13;4853521;28;120424;-80
2021/09/01 06:55:19;;;;;;;17.50;11.75;;;;;;;18.94;68.16;102297.09;4858467;28;119823;-80
2021/09/01 06:57:45;;;;;;;17.77;13.15;;;;;;;18.95;68.53;102290.28;4859154;28;122760;-81
2021/09/01 07:00:14;;;;;;;18.23;12.65;;;;;;;18.98;68.68;102285.78;4867078;28;121478;-82
2021/09/01 07:02:40;;;;;;;17.17;12.45;;;;;;;18.99;68.46;102288.09;4852098;28;126271;-81
2021/09/01 07:05:08;;;;;;;15.82;11.70;;;;;;;18.99;68.48;102292.88;4821130;28;120357;-81
2021/09/01 07:07:33;;;;;;;15.52;11.18;;;;;;;18.91;68.07;102288.88;4868522;28;120291;-82
2021/09/01 07:09:59;;;;;;;18.00;12.15;;;;;;;18.96;68.13;102294.59;4865195;28;120641;-81
2021/09/01 07:12:27;;;;;;;15.25;11.50;;;;;;;18.96;68.10;102294.59;4851596;28;119949;-81
2021/09/01 07:14:53;;;;;;;20.48;11.70;;;;;;;19.01;68.05;102295.97;4833681;28;121473;-82
2021/09/01 07:17:18;;;;;;;21.48;12.32;;;;;;;18.98;68.28;102278.22;4833358;28;121550;-82
2021/09/01 07:19:44;;;;;;;16.45;12.02;;;;;;;19.06;68.06;102289.00;4863931;28;120666;-80
2021/09/01 07:22:11;;;;;;;17.70;11.65;;;;;;;19.04;67.88;102283.13;4855915;28;121959;-82
2021/09/01 07:24:36;;;;;;;15.40;11.90;;;;;;;19.12;68.17;102298.22;4868107;28;119713;-82
2021/09/01 07:27:02;;;;;;;19.08;12.50;;;;;;;19.13;68.14;102296.97;4868390;28;119581;-81
2021/09/01 07:29:28;;;;;;;17.58;12.98;;;;;;;19.19;68.39;102300.69;4819490;28;123290;-82
2021/09/01 07:31:54;;;;;;;20.60;13.73;;;;;;;19.18;68.26;102294.34;4847532;28;120018;-81
2021/09/01 07:34:19;;;;;;;17.67;13.13;;;;;;;19.24;67.88;102294.47;4830615;28;120183;-81
2021/09/01 07:36:45;;;;;;;18.08;12.80;;;;;;;19.31;68.23;102305.25;4828129;28;123544;-80
2021/09/01 07:39:11;;;;;;;20.25;13.35;;;;;;;19.33;68.56;102299.97;4845911;28;120745;-80
2021/09/01 07:41:37;;;;;;;20.08;14.25;;;;;;;19.42;68.74;102307.50;4851137;28;120662;-80
2021/09/01 07:44:06;;;;;;;18.70;13.75;;;;;;;19.51;68.74;102313.78;4833842;28;121579;-80
2021/09/01 07:46:32;;;;;;;20.95;13.77;;;;;;;19.53;68.49;102305.75;4835117;28;119891;-81
2021/09/01 07:49:00;;;;;;;18.02;12.98;;;;;;;19.62;68.32;102313.25;4863661;28;121675;-80
2021/09/01 07:51:27;;;;;;;17.55;11.77;;;;;;;19.63;67.69;102318.34;4844316;28;120912;-80
2021/09/01 07:53:52;;;;;;;20.85;12.30;;;;;;;19.59;67.74;102311.44;4834686;28;119911;-80
2021/09/01 07:56:18;;;;;;;15.48;11.68;;;;;;;19.60;67.69;102310.94;4851406;28;121192;-81
2021/09/01 07:58:44;;;;;;;15.43;12.80;;;;;;;19.66;67.79;102325.00;4841642;28;119830;-80
2021/09/01 08:01:09;;;;;;;18.85;11.90;;;;;;;19.63;67.86;102312.78;4833471;28;120962;-81
2021/09/01 08:03:35;;;;;;;17.08;12.23;;;;;;;19.77;67.90;102332.81;4827134;28;124940;-81
2021/09/01 08:06:03;;;;;;;14.35;11.38;;;;;;;19.80;67.90;102326.28;4859520;28;119918;-80
2021/09/01 08:08:28;;;;;;;14.10;12.00;;;;;;;19.91;67.72;102332.88;4844099;28;120268;-81
2021/09/01 08:10:54;;;;;;;16.00;12.18;;;;;;;19.95;67.46;102327.13;4849535;28;120331;-80
2021/09/01 08:13:19;;;;;;;15.65;12.15;;;;;;;20.02;67.65;102331.53;4847476;28;120284;-81
2021/09/01 08:15:45;;;;;;;18.05;10.55;;;;;;;20.12;67.38;102336.56;4832729;28;122728;-80
2021/09/01 08:18:11;;;;;;;15.02;11.57;;;;;;;20.18;67.55;102340.22;4862976;28;119706;-80
2021/09/01 08:20:37;;;;;;;14.40;11.15;;;;;;;20.27;67.28;102335.81;4848510;28;121040;-80
2021/09/01 08:23:02;;;;;;;13.93;11.75;;;;;;;20.40;67.23;102344.69;4847238;28;120647;-80
2021/09/01 08:25:28;;;;;;;14.55;11.90;;;;;;;20.47;67.21;102349.91;4849557;28;123544;-80
2021/09/01 08:27:54;;;;;;;17.42;11.57;;;;;;;20.57;66.87;102350.56;4849170;28;121186;-80
2021/09/01 08:30:19;;;;;;;15.85;12.15;;;;;;;20.59;66.38;102348.88;4848512;28;120022;-81
2021/09/01 08:32:45;;;;;;;16.52;12.20;;;;;;;20.67;66.19;102343.66;4860981;28;121388;-80
2021/09/01 08:35:11;;;;;;;15.55;11.40;;;;;;;20.77;66.29;102354.22;4839442;28;120103;-80
2021/09/01 08:37:37;;;;;;;15.05;10.70;;;;;;;20.81;66.17;102342.88;4844943;28;120761;-80
2021/09/01 08:40:05;;;;;;;13.07;9.82;;;;;;;20.90;66.04;102350.38;4844437;28;121105;-79
2021/09/01 08:42:31;;;;;;;15.75;11.32;;;;;;;20.96;66.08;102359.59;4842077;28;121098;-79
2021/09/01 08:44:56;;;;;;;12.55;10.40;;;;;;;21.02;65.31;102366.03;4843616;28;120621;-79
2021/09/01 08:47:22;;;;;;;14.63;10.70;;;;;;;21.08;65.11;102359.31;4855267;28;122862;-79
2021/09/01 08:49:48;;;;;;;13.65;9.95;;;;;;;21.14;64.57;102362.97;4845763;28;123346;-79
2021/09/01 08:52:15;;;;;;;12.85;9.98;;;;;;;21.20;64.89;102356.69;4831209;28;121808;-79
2021/09/01 08:54:40;;;;;;;12.70;9.32;;;;;;;21.22;64.61;102357.72;4829990;28;123751;-79
2021/09/01 08:57:06;;;;;;;11.98;9.13;;;;;;;21.22;64.59;102357.72;4840600;28;122162;-79
2021/09/01 08:59:32;;;;;;;11.18;9.07;;;;;;;21.32;65.09;102361.22;4842452;28;121818;-80
2021/09/01 09:01:58;;;;;;;12.90;9.07;;;;;;;21.37;64.49;102364.09;4844671;28;121710;-79
2021/09/01 09:04:29;;;;;;;14.25;10.00;;;;;;;21.39;64.22;102355.22;4858237;28;121076;-79
2021/09/01 09:07:00;;;;;;;12.45;9.13;;;;;;;21.50;64.22;102371.34;4842126;28;121582;-79
2021/09/01 09:09:31;;;;;;;12.57;9.20;;;;;;;21.53;64.76;102367.59;4856422;28;122233;-79
2021/09/01 09:11:59;;;;;;;13.57;9.68;;;;;;;21.54;64.47;102363.56;4867357;28;122551;-80
2021/09/01 09:14:27;;;;;;;13.40;9.10;;;;;;;21.60;64.27;102364.41;4843025;28;122584;-80
2021/09/01 09:17:09;;;;;;;12.38;8.82;;;;;;;21.64;63.62;102376.91;4845129;28;121804;-79
2021/09/01 09:20:00;;;;;;;11.75;8.50;;;;;;;21.68;63.05;102371.09;4849176;28;123282;-80
2021/09/01 09:22:37;;;;;;;9.98;7.65;;;;;;;21.70;63.41;102368.59;4849051;28;124122;-80
2021/09/01 09:25:09;;;;;;;11.23;7.80;;;;;;;21.75;63.37;102370.69;4854635;28;122699;-80
2021/09/01 09:27:49;;;;;;;10.80;8.15;;;;;;;21.74;62.86;102371.94;4847930;28;121374;-81
2021/09/01 09:30:25;;;;;;;9.73;7.32;;;;;;;21.78;62.28;102371.75;4869221;28;122465;-81
2021/09/01 09:33:02;;;;;;;9.65;8.10;;;;;;;21.80;61.48;102361.63;4852439;28;122551;-81
2021/09/01 09:35:53;;;;;;;12.20;8.18;;;;;;;21.82;61.76;102370.28;4840909;28;121875;-80
2021/09/01 09:38:45;;;;;;;11.27;7.93;;;;;;;21.88;62.58;102370.34;4866986;28;121821;-80
2021/09/01 09:41:21;;;;;;;10.82;8.45;;;;;;;21.93;62.72;102381.59;4839535;28;121860;-83
2021/09/01 09:43:48;;;;;;;11.80;7.85;;;;;;;21.92;61.90;102370.91;4859644;28;122213;-81
2021/09/01 09:46:14;;;;;;;9.60;7.88;;;;;;;21.96;62.03;102368.66;4855614;28;123242;-80
2021/09/01 09:48:42;;;;;;;12.90;8.98;;;;;;;22.00;62.03;102367.22;4833083;28;122854;-81
2021/09/01 09:51:16;;;;;;;13.55;8.77;;;;;;;22.01;61.97;102370.78;4830010;28;123830;-81
2021/09/01 09:53:43;;;;;;;;;;;;;;;22.03;62.05;102373.84;4850044;28;123201;-81
2021/09/01 09:56:14;;;;;;;12.52;8.57;;;;;;;22.07;62.15;102382.03;4835100;28;127598;-81
2021/09/01 09:58:43;;;;;;;13.02;9.20;;;;;;;22.10;61.63;102383.84;4865341;28;121596;-81
2021/09/01 10:01:10;;;;;;;11.35;8.35;;;;;;;22.14;61.92;102384.41;4848594;28;121923;-81
2021/09/01 10:03:37;;;;;;;12.68;9.00;;;;;;;22.10;62.05;102379.03;4846530;28;122207;-80
2021/09/01 10:06:05;;;;;;;11.70;8.65;;;;;;;22.10;61.80;102373.44;4863879;28;121936;-81
2021/09/01 10:08:33;;;;;;;11.18;8.07;;;;;;;22.09;61.78;102368.34;4846220;28;122186;-81
2021/09/01 10:11:01;;;;;;;10.88;8.07;;;;;;;22.18;60.95;102380.13;4848403;28;123527;-80
2021/09/01 10:13:28;;;;;;;14.38;8.55;;;;;;;22.23;60.52;102382.22;4852406;28;123046;-80
2021/09/01 10:16:01;;;;;;;14.68;8.40;;;;;;;22.23;61.54;102375.84;4864261;28;122386;-80
2021/09/01 10:18:29;;;;;;;10.55;7.68;;;;;;;22.28;60.35;102383.56;4864019;28;122830;-80
2021/09/01 10:20:57;;;;;;;10.02;6.90;;;;;;;22.31;60.15;102382.56;4864070;28;122769;-81
2021/09/01 10:23:38;;;;;;;9.60;6.32;;;;;;;22.29;60.39;102376.69;4831553;28;123270;-81
2021/09/01 10:26:29;;;;;;;9.05;6.38;;;;;;;22.33;60.06;102378.00;4834341;28;122061;-80
2021/09/01 10:28:58;;;;;;;9.77;7.05;;;;;;;22.32;59.48;102370.91;4847209;28;122653;-80
2021/09/01 10:31:27;;;;;;;10.73;7.65;;;;;;;22.38;60.19;102381.34;4843716;28;122243;-81
2021/09/01 10:33:55;;;;;;;9.80;7.10;;;;;;;22.36;60.01;102374.22;4846107;28;122019;-80
2021/09/01 10:36:24;;;;;;;10.65;6.55;;;;;;;22.39;60.03;102366.88;4862201;28;122497;-80
2021/09/01 10:39:08;;;;;;;10.57;7.05;;;;;;;22.39;59.29;102368.91;4811385;28;124788;-81
2021/09/01 10:41:34;;;;;;;;;;;;;;;22.38;59.56;102359.75;4855341;28;124020;-80
2021/09/01 10:44:30;;;;;;;8.30;6.53;;;;;;;22.32;59.38;102344.97;4827468;28;124645;-80
2021/09/01 10:47:00;;;;;;;10.80;6.85;;;;;;;22.47;59.61;102365.19;4831156;28;122394;-83
2021/09/01 10:49:47;;;;;;;10.98;6.55;;;;;;;22.51;59.41;102367.78;4831569;28;122657;-81
2021/09/01 10:52:12;;;;;;;14.88;6.78;;;;;;;22.50;59.41;102358.63;4861983;28;121814;-80
2021/09/01 10:54:40;;;;;;;8.80;5.97;;;;;;;22.58;59.58;102365.31;4833550;28;122746;-81
2021/09/01 10:57:20;;;;;;;10.32;6.22;;;;;;;22.61;59.22;102367.09;4847244;28;123059;-80
2021/09/01 10:59:46;;;;;;;9.63;5.95;;;;;;;22.54;59.27;102345.19;4856902;28;123070;-80
2021/09/01 11:02:15;;;;;;;7.57;5.28;;;;;;;22.62;58.43;102363.03;4840042;28;122405;-80
2021/09/01 11:04:50;;;;;;;8.82;5.75;;;;;;;22.65;58.60;102364.84;4851631;28;121769;-80
2021/09/01 11:07:30;;;;;;;7.97;5.93;;;;;;;22.64;58.18;102362.53;4866304;28;122880;-80